createdAt,value
2019-04-20T00:00:59.848Z,6.15
2019-04-20T00:03:38.040Z,6.10
2019-04-20T00:06:04.572Z,6.12
2019-04-20T00:08:38.182Z,6.13
2019-04-20T00:11:16.330Z,6.09
2019-04-20T00:13:52.049Z,6.11
2019-04-20T00:16:14.769Z,6.15
2019-04-20T00:18:50.373Z,6.12
2019-04-20T00:21:47.324Z,6.10
2019-04-20T00:24:22.932Z,6.03
2019-04-20T00:29:41.107Z,5.99
2019-04-20T00:32:03.020Z,5.96
2019-04-20T00:34:30.462Z,6.04
2019-04-20T00:37:00.288Z,6.16
2019-04-20T00:39:31.989Z,6.59
2019-04-20T00:42:06.651Z,6.65
2019-04-20T00:44:38.069Z,6.63
2019-04-20T00:47:20.051Z,6.54
2019-04-20T00:49:55.107Z,6.46
2019-04-20T00:52:31.533Z,6.30
2019-04-20T00:54:51.424Z,6.25
2019-04-20T00:57:33.941Z,6.25
2019-04-20T01:00:12.537Z,6.26
2019-04-20T01:02:37.231Z,6.14
2019-04-20T01:05:20.224Z,6.14
2019-04-20T01:08:01.628Z,6.09
2019-04-20T01:10:38.292Z,6.11
2019-04-20T01:13:11.686Z,6.07
2019-04-20T01:15:48.894Z,6.10
2019-04-20T01:18:13.990Z,6.09
2019-04-20T01:20:45.304Z,6.06
2019-04-20T01:23:19.610Z,6.07
2019-04-20T01:25:57.897Z,6.15
2019-04-20T01:28:39.777Z,6.26
2019-04-20T01:31:05.850Z,6.24
2019-04-20T01:33:37.200Z,6.17
2019-04-20T01:36:19.594Z,6.14
2019-04-20T01:38:44.685Z,6.10
2019-04-20T01:41:03.343Z,6.08
2019-04-20T01:43:35.343Z,6.07
2019-04-20T01:46:11.886Z,6.04
2019-04-20T01:48:39.941Z,6.02
2019-04-20T01:51:17.584Z,6.04
2019-04-20T01:54:06.707Z,5.99
2019-04-20T01:56:37.315Z,5.95
2019-04-20T01:59:23.041Z,5.91
2019-04-20T02:02:09.614Z,5.87
2019-04-20T02:05:04.801Z,5.88
2019-04-20T02:07:36.649Z,5.87
2019-04-20T02:10:05.299Z,5.79
2019-04-20T02:12:37.268Z,5.81
2019-04-20T02:15:09.101Z,5.81
2019-04-20T02:17:46.675Z,5.75
2019-04-20T02:20:33.078Z,5.70
2019-04-20T02:23:00.456Z,5.67
2019-04-20T02:25:18.393Z,5.64
2019-04-20T02:27:54.850Z,5.65
2019-04-20T02:30:55.612Z,5.60
2019-04-20T02:33:39.634Z,5.60
2019-04-20T02:36:35.135Z,5.57
2019-04-20T02:44:14.710Z,5.52
2019-04-20T02:46:49.220Z,5.53
2019-04-20T02:49:19.691Z,5.53
2019-04-20T02:51:47.016Z,5.51
2019-04-20T02:54:28.474Z,5.42
2019-04-20T02:56:58.807Z,5.40
2019-04-20T02:59:48.751Z,5.35
2019-04-20T03:01:47.977Z,5.36
2019-04-20T03:04:02.039Z,5.36
2019-04-20T03:06:42.561Z,5.33
2019-04-20T03:09:26.959Z,5.34
2019-04-20T03:14:29.435Z,5.27
2019-04-20T03:17:18.640Z,5.22
2019-04-20T03:19:38.669Z,5.22
2019-04-20T03:22:21.327Z,5.26
2019-04-20T03:24:54.368Z,5.28
2019-04-20T03:27:33.033Z,5.28
2019-04-20T03:33:38.891Z,5.22
2019-04-20T03:35:58.683Z,5.20
2019-04-20T03:38:07.457Z,5.14
2019-04-20T03:40:35.096Z,5.20
2019-04-20T03:42:52.719Z,5.18
2019-04-20T03:45:26.509Z,5.16
2019-04-20T03:48:09.042Z,5.11
2019-04-20T03:50:52.220Z,5.03
2019-04-20T03:53:23.029Z,5.07
2019-04-20T03:56:28.016Z,5.03
2019-04-20T03:58:55.208Z,5.01
2019-04-20T04:04:27.145Z,4.87
2019-04-20T04:06:44.887Z,4.79
2019-04-20T04:09:20.183Z,4.84
2019-04-20T04:11:56.076Z,4.81
2019-04-20T04:14:15.634Z,4.77
2019-04-20T04:16:51.597Z,4.77
2019-04-20T04:19:28.466Z,4.78
2019-04-20T04:22:10.444Z,4.73
2019-04-20T04:24:34.425Z,4.66
2019-04-20T04:27:10.513Z,4.64
2019-04-20T04:29:50.607Z,4.66
2019-04-20T04:32:37.529Z,4.66
2019-04-20T04:34:55.294Z,4.64
2019-04-20T04:37:27.166Z,4.68
2019-04-20T04:40:06.680Z,4.75
2019-04-20T04:42:39.245Z,4.75
2019-04-20T04:44:53.557Z,4.72
2019-04-20T04:47:18.168Z,4.73
2019-04-20T04:49:59.945Z,4.76
2019-04-20T04:52:34.217Z,4.84
2019-04-20T04:55:09.591Z,4.92
2019-04-20T04:57:30.676Z,5.02
2019-04-20T05:00:01.655Z,5.06
2019-04-20T05:02:45.258Z,5.14
2019-04-20T05:05:47.289Z,5.30
2019-04-20T05:08:06.312Z,5.40
2019-04-20T05:10:33.055Z,5.49
2019-04-20T05:13:03.462Z,5.54
2019-04-20T05:15:48.404Z,5.58
2019-04-20T05:18:34.444Z,5.61
2019-04-20T05:20:58.925Z,5.67
2019-04-20T05:23:37.307Z,5.77
2019-04-20T05:26:29.942Z,5.88
2019-04-20T05:29:01.132Z,6.02
2019-04-20T05:31:30.987Z,6.10
2019-04-20T05:34:20.461Z,6.24
2019-04-20T05:36:53.007Z,6.37
2019-04-20T05:39:28.120Z,6.55
2019-04-20T05:41:53.199Z,6.75
2019-04-20T05:44:39.377Z,6.96
2019-04-20T05:47:06.976Z,7.14
2019-04-20T05:49:44.031Z,7.31
2019-04-20T05:52:31.743Z,7.48
2019-04-20T05:54:50.886Z,7.68
2019-04-20T06:00:05.446Z,8.16
2019-04-20T06:03:02.318Z,8.37
2019-04-20T06:05:38.554Z,8.59
2019-04-20T06:08:05.166Z,8.86
2019-04-20T06:10:38.196Z,9.14
2019-04-20T06:13:17.369Z,9.41
2019-04-20T06:16:46.993Z,9.60
2019-04-20T06:19:25.835Z,9.92
2019-04-20T06:21:57.555Z,10.23
2019-04-20T06:24:39.957Z,10.45
2019-04-20T06:27:31.111Z,10.64
2019-04-20T06:29:55.959Z,10.86
2019-04-20T06:33:16.143Z,11.18
2019-04-20T06:36:00.996Z,11.45
2019-04-20T06:38:36.506Z,11.65
2019-04-20T06:43:25.471Z,12.22
2019-04-20T06:46:03.378Z,12.49
2019-04-20T06:48:34.959Z,12.74
2019-04-20T06:51:01.880Z,12.99
2019-04-20T06:53:44.341Z,13.28
2019-04-20T06:56:27.751Z,13.53
2019-04-20T06:58:58.896Z,13.70
2019-04-20T07:01:36.932Z,13.86
2019-04-20T07:04:33.711Z,13.97
2019-04-20T07:09:33.907Z,14.15
2019-04-20T07:11:54.179Z,14.25
2019-04-20T07:14:23.095Z,14.43
2019-04-20T07:17:31.701Z,14.55
2019-04-20T07:19:56.324Z,14.82
2019-04-20T07:22:51.095Z,15.06
2019-04-20T07:25:20.310Z,15.31
2019-04-20T07:27:55.235Z,15.38
2019-04-20T07:33:56.894Z,15.46
2019-04-20T07:36:40.036Z,15.48
2019-04-20T07:39:17.095Z,15.59
2019-04-20T07:42:04.515Z,15.78
2019-04-20T07:44:39.863Z,15.89
2019-04-20T07:49:37.322Z,15.99
2019-04-20T07:51:48.992Z,16.10
2019-04-20T07:54:50.780Z,16.15
2019-04-20T07:57:14.568Z,16.08
2019-04-20T07:59:37.377Z,16.22
2019-04-20T08:03:00.841Z,16.44
2019-04-20T08:05:44.274Z,16.62
2019-04-20T08:08:22.943Z,16.74
2019-04-20T08:10:54.436Z,16.81
2019-04-20T08:13:45.774Z,16.96
2019-04-20T08:16:14.554Z,17.02
2019-04-20T08:18:44.069Z,17.17
2019-04-20T08:21:25.451Z,17.31
2019-04-20T08:23:51.913Z,17.50
2019-04-20T08:26:16.251Z,17.68
2019-04-20T08:28:53.293Z,17.82
2019-04-20T08:31:42.774Z,17.73
2019-04-20T08:34:26.447Z,17.73
2019-04-20T08:36:57.061Z,17.88
2019-04-20T08:39:58.695Z,17.99
2019-04-20T08:42:11.154Z,17.92
2019-04-20T08:47:35.338Z,18.49
2019-04-20T08:50:16.528Z,18.72
2019-04-20T08:55:23.477Z,19.17
2019-04-20T08:57:40.193Z,19.18
2019-04-20T09:00:11.248Z,19.14
2019-04-20T09:02:48.924Z,19.04
2019-04-20T09:05:34.985Z,19.10
2019-04-20T09:08:09.301Z,19.40
2019-04-20T09:10:49.230Z,19.61
2019-04-20T09:13:15.887Z,19.90
2019-04-20T09:15:38.324Z,20.04
2019-04-20T09:18:56.675Z,20.09
2019-04-20T09:21:32.919Z,20.26
2019-04-20T09:24:38.311Z,20.30
2019-04-20T09:27:08.811Z,20.57
2019-04-20T09:29:58.130Z,20.72
2019-04-20T09:32:34.329Z,20.81
2019-04-20T09:35:13.341Z,20.76
2019-04-20T09:38:03.173Z,21.11
2019-04-20T09:40:40.487Z,21.44
2019-04-20T09:43:08.837Z,21.93
2019-04-20T09:45:56.428Z,22.26
2019-04-20T09:48:31.824Z,22.10
2019-04-20T09:51:20.345Z,22.09
2019-04-20T09:53:42.955Z,22.29
2019-04-20T09:56:19.848Z,22.40
2019-04-20T09:59:01.073Z,22.69
2019-04-20T10:01:22.732Z,22.85
2019-04-20T10:03:47.059Z,23.20
2019-04-20T10:06:24.687Z,23.27
2019-04-20T10:09:13.651Z,23.47
2019-04-20T10:11:51.485Z,23.78
2019-04-20T10:17:07.674Z,24.11
2019-04-20T10:19:43.208Z,24.13
2019-04-20T10:22:18.464Z,24.37
2019-04-20T10:25:04.574Z,24.52
2019-04-20T10:27:34.965Z,24.73
2019-04-20T10:30:16.697Z,24.49
2019-04-20T10:33:15.547Z,24.82
2019-04-20T10:35:51.851Z,24.51
2019-04-20T10:38:26.284Z,24.47
2019-04-20T10:41:08.338Z,24.65
2019-04-20T10:43:38.647Z,24.90
2019-04-20T10:46:16.944Z,24.66
2019-04-20T10:49:04.717Z,24.91
2019-04-20T10:51:39.804Z,24.43
2019-04-20T10:54:14.234Z,25.10
2019-04-20T10:56:48.169Z,24.64
2019-04-20T10:59:31.859Z,24.93
2019-04-20T11:02:05.664Z,24.41
2019-04-20T11:04:38.806Z,24.71
2019-04-20T11:07:12.533Z,24.86
2019-04-20T11:09:47.576Z,24.77
2019-04-20T11:12:20.233Z,25.05
2019-04-20T11:14:50.660Z,24.91
2019-04-20T11:17:22.351Z,24.69
2019-04-20T11:19:59.162Z,24.39
2019-04-20T11:22:30.514Z,24.10
2019-04-20T11:25:14.852Z,24.04
2019-04-20T11:28:00.235Z,24.11
2019-04-20T11:30:32.080Z,24.61
2019-04-20T11:33:06.453Z,24.40
2019-04-20T11:35:44.853Z,23.89
2019-04-20T11:38:30.241Z,23.64
2019-04-20T11:41:13.462Z,23.36
2019-04-20T11:43:39.860Z,23.52
2019-04-20T11:46:12.453Z,23.66
2019-04-20T11:48:43.571Z,23.38
2019-04-20T11:51:15.811Z,23.48
2019-04-20T11:53:48.201Z,23.74
2019-04-20T11:56:29.419Z,23.58
2019-04-20T11:59:00.982Z,23.71
2019-04-20T12:01:49.224Z,23.89
2019-04-20T12:04:27.154Z,23.98
2019-04-20T12:06:59.039Z,23.27
2019-04-20T12:09:49.278Z,23.37
2019-04-20T12:12:31.071Z,23.16
2019-04-20T12:14:54.817Z,23.08
2019-04-20T12:17:35.621Z,22.99
2019-04-20T12:20:10.119Z,23.11
2019-04-20T12:22:48.412Z,22.98
2019-04-20T12:25:22.200Z,23.19
2019-04-20T12:28:01.959Z,22.56
2019-04-20T12:30:30.830Z,22.48
2019-04-20T12:33:02.170Z,22.26
2019-04-20T12:35:50.106Z,22.05
2019-04-20T12:38:19.217Z,21.92
2019-04-20T12:40:52.514Z,21.64
2019-04-20T12:43:23.711Z,21.58
2019-04-20T12:45:54.236Z,21.51
2019-04-20T12:48:29.304Z,21.41
2019-04-20T12:51:05.980Z,21.42
2019-04-20T12:53:36.212Z,21.33
2019-04-20T12:56:08.750Z,21.24
2019-04-20T12:58:43.553Z,21.13
2019-04-20T13:01:17.702Z,21.15
2019-04-20T13:03:47.680Z,21.07
2019-04-20T13:06:19.568Z,21.08
2019-04-20T13:08:55.936Z,21.18
2019-04-20T13:11:44.370Z,21.05
2019-04-20T13:14:56.153Z,20.88
2019-04-20T13:17:34.502Z,20.80
2019-04-20T13:20:16.163Z,20.91
2019-04-20T13:23:03.638Z,20.81
2019-04-20T13:25:48.768Z,20.87
2019-04-20T13:28:23.226Z,20.95
2019-04-20T13:30:59.673Z,20.82
2019-04-20T13:33:33.845Z,20.77
2019-04-20T13:36:16.625Z,20.72
2019-04-20T13:38:59.876Z,20.80
2019-04-20T13:41:33.679Z,20.82
2019-04-20T13:47:28.117Z,20.68
2019-04-20T13:50:01.189Z,20.72
2019-04-20T13:52:35.648Z,20.79
2019-04-20T13:55:10.487Z,20.86
2019-04-20T13:58:15.991Z,20.79
2019-04-20T14:01:18.846Z,20.77
2019-04-20T14:04:23.143Z,20.81
2019-04-20T14:07:06.247Z,20.78
2019-04-20T14:09:39.527Z,20.73
2019-04-20T14:12:57.288Z,20.73
2019-04-20T14:15:24.857Z,20.79
2019-04-20T14:17:59.357Z,21.06
2019-04-20T14:20:40.289Z,21.04
2019-04-20T14:23:10.871Z,21.21
2019-04-20T14:25:42.878Z,21.35
2019-04-20T14:28:16.248Z,21.35
2019-04-20T14:30:47.855Z,21.36
2019-04-20T14:33:24.236Z,21.53
2019-04-20T14:35:56.935Z,21.75
2019-04-20T14:38:28.516Z,21.70
2019-04-20T14:41:00.088Z,21.66
2019-04-20T14:43:32.888Z,21.43
2019-04-20T14:46:03.175Z,21.51
2019-04-20T14:48:40.896Z,21.44
2019-04-20T14:51:11.838Z,21.64
2019-04-20T15:01:06.808Z,21.56
2019-04-20T15:04:09.079Z,21.58
2019-04-20T15:06:46.926Z,21.39
2019-04-20T15:09:31.102Z,21.39
2019-04-20T15:12:06.777Z,21.38
2019-04-20T15:14:43.098Z,21.34
2019-04-20T15:17:19.983Z,21.32
2019-04-20T15:20:27.715Z,21.20
2019-04-20T15:23:13.713Z,21.13
2019-04-20T15:25:48.643Z,20.94
2019-04-20T15:28:30.341Z,20.85
2019-04-20T15:31:12.056Z,20.59
2019-04-20T15:34:06.893Z,20.54
2019-04-20T15:36:40.224Z,20.56
2019-04-20T15:39:16.939Z,20.55
2019-04-20T15:41:49.634Z,20.47
2019-04-20T15:44:25.154Z,20.40
2019-04-20T15:47:03.508Z,20.18
2019-04-20T15:49:35.889Z,20.10
2019-04-20T15:52:36.218Z,20.00
2019-04-20T15:55:21.639Z,20.00
2019-04-20T15:57:55.572Z,19.96
2019-04-20T16:00:29.857Z,19.95
2019-04-20T16:03:15.060Z,19.77
2019-04-20T16:06:09.414Z,19.75
2019-04-20T16:08:42.144Z,19.79
2019-04-20T16:11:19.423Z,19.60
2019-04-20T16:13:54.308Z,19.49
2019-04-20T16:16:29.946Z,19.38
2019-04-20T16:19:03.973Z,19.17
2019-04-20T16:21:37.396Z,19.06
2019-04-20T16:24:12.825Z,18.91
2019-04-20T16:27:13.623Z,18.76
2019-04-20T16:29:44.268Z,18.62
2019-04-20T16:32:16.398Z,18.51
2019-04-20T16:34:53.115Z,18.45
2019-04-20T16:37:28.576Z,18.36
2019-04-20T16:40:06.111Z,18.25
2019-04-20T16:42:42.130Z,18.13
2019-04-20T16:45:12.546Z,18.03
2019-04-20T16:47:44.468Z,17.92
2019-04-20T16:50:17.174Z,17.78
2019-04-20T16:52:48.843Z,17.72
2019-04-20T16:55:34.890Z,17.64
2019-04-20T16:58:08.138Z,17.59
2019-04-20T17:00:45.419Z,17.54
2019-04-20T17:03:17.280Z,17.52
2019-04-20T17:05:53.806Z,17.40
2019-04-20T17:08:31.103Z,17.29
2019-04-20T17:11:03.500Z,17.24
2019-04-20T17:13:40.491Z,17.23
2019-04-20T17:16:10.120Z,17.15
2019-04-20T17:18:47.899Z,16.98
2019-04-20T17:21:23.259Z,16.86
2019-04-20T17:24:09.084Z,16.75
2019-04-20T17:27:01.342Z,16.73
2019-04-20T17:29:41.195Z,16.62
2019-04-20T17:35:12.716Z,16.38
2019-04-20T17:37:33.728Z,16.34
2019-04-20T17:40:19.155Z,16.27
2019-04-20T17:42:50.788Z,16.20
2019-04-20T17:45:25.844Z,16.10
2019-04-20T17:48:04.707Z,16.05
2019-04-20T17:50:44.339Z,15.95
2019-04-20T17:53:05.170Z,15.90
2019-04-20T17:55:52.802Z,15.82
2019-04-20T17:58:29.841Z,15.70
2019-04-20T18:01:20.510Z,15.65
2019-04-20T18:04:11.155Z,15.53
2019-04-20T18:06:39.483Z,15.38
2019-04-20T18:10:11.507Z,15.22
2019-04-20T18:12:39.314Z,15.08
2019-04-20T18:15:28.123Z,14.92
2019-04-20T18:18:24.503Z,14.73
2019-04-20T18:21:01.178Z,14.69
2019-04-20T18:23:38.046Z,14.53
2019-04-20T18:26:31.910Z,14.29
2019-04-20T18:29:02.059Z,14.07
2019-04-20T18:31:35.525Z,13.90
2019-04-20T18:34:14.491Z,13.78
2019-04-20T18:36:46.210Z,13.64
2019-04-20T18:39:18.066Z,13.50
2019-04-20T18:41:52.139Z,13.32
2019-04-20T18:44:27.720Z,13.22
2019-04-20T18:47:19.787Z,13.10
2019-04-20T18:49:43.150Z,12.99
2019-04-20T18:52:01.852Z,12.86
2019-04-20T18:54:44.261Z,12.75
2019-04-20T18:57:21.811Z,12.61
2019-04-20T18:59:56.799Z,12.47
2019-04-20T19:02:33.414Z,12.45
2019-04-20T19:05:05.538Z,12.34
2019-04-20T19:07:42.523Z,12.19
2019-04-20T19:10:18.610Z,12.06
2019-04-20T19:12:57.123Z,11.98
2019-04-20T19:16:08.156Z,11.89
2019-04-20T19:18:53.517Z,11.79
2019-04-20T19:21:11.165Z,11.67
2019-04-20T19:23:50.330Z,11.54
2019-04-20T19:26:18.062Z,11.46
2019-04-20T19:28:52.757Z,11.40
2019-04-20T19:31:35.490Z,11.24
2019-04-20T19:34:11.528Z,11.21
2019-04-20T19:36:34.127Z,11.15
2019-04-20T19:39:17.325Z,11.11
2019-04-20T19:41:44.375Z,11.01
2019-04-20T19:44:18.986Z,10.88
2019-04-20T19:47:05.267Z,10.75
2019-04-20T19:49:39.352Z,10.65
2019-04-20T19:52:30.883Z,10.53
2019-04-20T19:54:54.727Z,10.42
2019-04-20T19:57:34.724Z,10.32
2019-04-20T20:00:14.627Z,10.22
2019-04-20T20:02:47.884Z,10.14
2019-04-20T20:05:25.028Z,10.03
2019-04-20T20:08:04.022Z,9.99
2019-04-20T20:10:33.944Z,9.91
2019-04-20T20:13:02.595Z,9.80
2019-04-20T20:15:36.429Z,9.71
2019-04-20T20:18:24.009Z,9.63
2019-04-20T20:21:10.026Z,9.57
2019-04-20T20:23:26.256Z,9.53
2019-04-20T20:26:09.104Z,9.46
2019-04-20T20:28:52.519Z,9.39
2019-04-20T20:31:32.129Z,9.29
2019-04-20T20:34:09.668Z,9.19
2019-04-20T20:36:42.404Z,9.12
2019-04-20T20:39:21.371Z,9.03
2019-04-20T20:42:01.344Z,8.94
2019-04-20T20:44:31.792Z,8.86
2019-04-20T20:47:29.828Z,8.80
2019-04-20T20:50:11.292Z,8.75
2019-04-20T20:52:42.916Z,8.69
2019-04-20T20:55:25.551Z,8.64
2019-04-20T20:58:01.731Z,8.57
2019-04-20T21:01:04.554Z,8.50
2019-04-20T21:04:09.837Z,8.43
2019-04-20T21:06:54.788Z,8.37
2019-04-20T21:09:31.342Z,8.29
2019-04-20T21:12:14.275Z,8.26
2019-04-20T21:14:44.111Z,8.19
2019-04-20T21:17:27.407Z,8.15
2019-04-20T21:20:38.180Z,8.09
2019-04-20T21:23:07.177Z,8.03
2019-04-20T21:25:40.793Z,8.00
2019-04-20T21:28:28.813Z,7.95
2019-04-20T21:31:08.336Z,7.90
2019-04-20T21:33:36.762Z,7.83
2019-04-20T21:36:14.483Z,7.82
2019-04-20T21:38:44.556Z,7.77
2019-04-20T21:41:22.046Z,7.73
2019-04-20T21:43:53.997Z,7.66
2019-04-20T21:46:29.812Z,7.65
2019-04-20T21:49:12.908Z,7.63
2019-04-20T21:51:44.701Z,7.59
2019-04-20T21:54:15.996Z,7.52
2019-04-20T21:56:55.243Z,7.47
2019-04-20T21:59:28.028Z,7.42
2019-04-20T22:01:58.487Z,7.38
2019-04-20T22:04:25.204Z,7.34
2019-04-20T22:06:56.252Z,7.27
2019-04-20T22:09:34.531Z,7.24
2019-04-20T22:12:00.159Z,7.23
2019-04-20T22:14:33.634Z,7.16
2019-04-20T22:17:05.241Z,7.12
2019-04-20T22:19:47.440Z,7.11
2019-04-20T22:22:18.013Z,7.08
2019-04-20T22:24:56.357Z,7.08
2019-04-20T22:27:21.070Z,7.11
2019-04-20T22:29:52.242Z,7.11
2019-04-20T22:32:25.885Z,7.06
2019-04-20T22:35:06.572Z,7.03
2019-04-20T22:37:43.278Z,7.00
2019-04-20T22:40:20.496Z,6.97
2019-04-20T22:42:59.863Z,6.94
2019-04-20T22:45:27.410Z,6.93
2019-04-20T22:48:01.160Z,6.87
2019-04-20T22:50:43.819Z,6.91
2019-04-20T22:53:18.022Z,6.96
2019-04-20T22:56:01.241Z,6.94
2019-04-20T22:58:28.978Z,6.95
2019-04-20T23:00:53.598Z,6.90
2019-04-20T23:03:28.141Z,6.88
2019-04-20T23:06:00.988Z,6.85
2019-04-20T23:08:32.809Z,6.82
2019-04-20T23:11:05.985Z,6.70
2019-04-20T23:13:43.196Z,6.67
2019-04-20T23:16:13.361Z,6.60
2019-04-20T23:18:44.510Z,6.53
2019-04-20T23:21:17.433Z,6.46
2019-04-20T23:23:47.391Z,6.45
2019-04-20T23:26:27.933Z,6.41
2019-04-20T23:28:58.646Z,6.34
2019-04-20T23:31:32.299Z,6.33
2019-04-20T23:34:10.107Z,6.28
2019-04-20T23:36:43.368Z,6.24
2019-04-20T23:39:12.994Z,6.21
2019-04-20T23:41:57.991Z,6.16
2019-04-20T23:44:48.272Z,6.09
2019-04-20T23:47:26.352Z,6.04
2019-04-20T23:50:15.142Z,6.01
2019-04-20T23:52:54.156Z,5.99
2019-04-20T23:55:10.303Z,5.94
2019-04-20T23:57:39.839Z,5.92
